sensor_id;sensor_type;location;lat;lon;timestamp;P1;durP1;ratioP1;P2;durP2;ratioP2
63320;SDS011;49449;48.800;9.534;2024-03-06T00:01:22;5.35;;;4.80;;
63320;SDS011;49449;48.800;9.534;2024-03-06T00:03:51;6.18;;;4.93;;
63320;SDS011;49449;48.800;9.534;2024-03-06T00:06:19;4.78;;;4.38;;
63320;SDS011;49449;48.800;9.534;2024-03-06T00:08:47;5.97;;;4.93;;
63320;SDS011;49449;48.800;9.534;2024-03-06T00:11:15;5.28;;;4.20;;
63320;SDS011;49449;48.800;9.534;2024-03-06T00:13:43;5.30;;;4.80;;
63320;SDS011;49449;48.800;9.534;2024-03-06T00:16:13;6.07;;;4.78;;
63320;SDS011;49449;48.800;9.534;2024-03-06T00:18:43;5.22;;;4.00;;
63320;SDS011;49449;48.800;9.534;2024-03-06T00:21:12;5.85;;;5.25;;
63320;SDS011;49449;48.800;9.534;2024-03-06T00:23:40;6.05;;;5.43;;
63320;SDS011;49449;48.800;9.534;2024-03-06T00:26:07;5.38;;;4.60;;
63320;SDS011;49449;48.800;9.534;2024-03-06T00:28:36;4.97;;;4.10;;
63320;SDS011;49449;48.800;9.534;2024-03-06T00:31:04;6.65;;;5.20;;
63320;SDS011;49449;48.800;9.534;2024-03-06T00:33:32;6.85;;;6.15;;
63320;SDS011;49449;48.800;9.534;2024-03-06T00:36:00;7.55;;;6.75;;
63320;SDS011;49449;48.800;9.534;2024-03-06T00:38:29;6.50;;;5.28;;
63320;SDS011;49449;48.800;9.534;2024-03-06T00:40:57;6.57;;;5.90;;
63320;SDS011;49449;48.800;9.534;2024-03-06T00:43:25;5.45;;;4.75;;
63320;SDS011;49449;48.800;9.534;2024-03-06T00:45:53;5.80;;;5.22;;
63320;SDS011;49449;48.800;9.534;2024-03-06T00:48:20;6.45;;;5.80;;
63320;SDS011;49449;48.800;9.534;2024-03-06T00:50:48;5.75;;;5.10;;
63320;SDS011;49449;48.800;9.534;2024-03-06T00:53:16;9.90;;;6.70;;
63320;SDS011;49449;48.800;9.534;2024-03-06T00:55:45;7.30;;;6.60;;
63320;SDS011;49449;48.800;9.534;2024-03-06T00:58:13;9.57;;;7.32;;
63320;SDS011;49449;48.800;9.534;2024-03-06T01:00:41;8.40;;;6.78;;
63320;SDS011;49449;48.800;9.534;2024-03-06T01:03:11;7.65;;;6.15;;
63320;SDS011;49449;48.800;9.534;2024-03-06T01:05:39;7.13;;;6.43;;
63320;SDS011;49449;48.800;9.534;2024-03-06T01:08:06;6.13;;;4.72;;
63320;SDS011;49449;48.800;9.534;2024-03-06T01:10:34;6.63;;;5.97;;
63320;SDS011;49449;48.800;9.534;2024-03-06T01:13:04;6.68;;;6.00;;
63320;SDS011;49449;48.800;9.534;2024-03-06T01:15:31;7.45;;;6.25;;
63320;SDS011;49449;48.800;9.534;2024-03-06T01:18:00;6.57;;;5.88;;
63320;SDS011;49449;48.800;9.534;2024-03-06T01:20:28;6.63;;;5.15;;
63320;SDS011;49449;48.800;9.534;2024-03-06T01:22:56;7.03;;;6.28;;
63320;SDS011;49449;48.800;9.534;2024-03-06T01:25:24;8.18;;;6.28;;
63320;SDS011;49449;48.800;9.534;2024-03-06T01:27:52;7.03;;;6.35;;
63320;SDS011;49449;48.800;9.534;2024-03-06T01:30:21;6.72;;;5.43;;
63320;SDS011;49449;48.800;9.534;2024-03-06T01:32:49;7.13;;;6.28;;
63320;SDS011;49449;48.800;9.534;2024-03-06T01:35:17;6.88;;;6.18;;
63320;SDS011;49449;48.800;9.534;2024-03-06T01:37:45;7.57;;;6.40;;
63320;SDS011;49449;48.800;9.534;2024-03-06T01:40:13;6.40;;;5.65;;
63320;SDS011;49449;48.800;9.534;2024-03-06T01:42:41;7.18;;;6.38;;
63320;SDS011;49449;48.800;9.534;2024-03-06T01:45:09;7.72;;;6.47;;
63320;SDS011;49449;48.800;9.534;2024-03-06T01:47:39;6.22;;;5.47;;
63320;SDS011;49449;48.800;9.534;2024-03-06T01:50:07;7.15;;;6.45;;
63320;SDS011;49449;48.800;9.534;2024-03-06T01:52:36;8.15;;;7.10;;
63320;SDS011;49449;48.800;9.534;2024-03-06T01:55:07;10.13;;;7.10;;
63320;SDS011;49449;48.800;9.534;2024-03-06T01:57:37;6.80;;;6.10;;
63320;SDS011;49449;48.800;9.534;2024-03-06T02:00:06;6.68;;;6.07;;
63320;SDS011;49449;48.800;9.534;2024-03-06T02:02:42;6.70;;;5.95;;
63320;SDS011;49449;48.800;9.534;2024-03-06T02:05:10;7.97;;;6.75;;
63320;SDS011;49449;48.800;9.534;2024-03-06T02:07:38;7.25;;;6.55;;
63320;SDS011;49449;48.800;9.534;2024-03-06T02:10:07;7.50;;;6.32;;
63320;SDS011;49449;48.800;9.534;2024-03-06T02:12:36;7.47;;;6.20;;
63320;SDS011;49449;48.800;9.534;2024-03-06T02:15:04;6.63;;;5.50;;
63320;SDS011;49449;48.800;9.534;2024-03-06T02:17:36;6.88;;;5.28;;
63320;SDS011;49449;48.800;9.534;2024-03-06T02:20:06;7.05;;;6.35;;
63320;SDS011;49449;48.800;9.534;2024-03-06T02:22:39;6.90;;;6.20;;
63320;SDS011;49449;48.800;9.534;2024-03-06T02:25:07;7.10;;;6.38;;
63320;SDS011;49449;48.800;9.534;2024-03-06T02:27:35;7.63;;;6.43;;
63320;SDS011;49449;48.800;9.534;2024-03-06T02:30:04;5.63;;;5.13;;
63320;SDS011;49449;48.800;9.534;2024-03-06T02:32:33;5.88;;;5.15;;
63320;SDS011;49449;48.800;9.534;2024-03-06T02:35:00;6.05;;;5.45;;
63320;SDS011;49449;48.800;9.534;2024-03-06T02:37:29;8.43;;;5.15;;
63320;SDS011;49449;48.800;9.534;2024-03-06T02:40:01;6.32;;;5.72;;
63320;SDS011;49449;48.800;9.534;2024-03-06T02:42:29;9.35;;;6.03;;
63320;SDS011;49449;48.800;9.534;2024-03-06T02:44:57;6.13;;;5.53;;
63320;SDS011;49449;48.800;9.534;2024-03-06T02:47:25;8.23;;;5.70;;
63320;SDS011;49449;48.800;9.534;2024-03-06T02:49:53;7.07;;;6.35;;
63320;SDS011;49449;48.800;9.534;2024-03-06T02:52:20;7.43;;;6.25;;
63320;SDS011;49449;48.800;9.534;2024-03-06T02:54:48;6.93;;;5.82;;
63320;SDS011;49449;48.800;9.534;2024-03-06T02:57:17;6.63;;;5.85;;
63320;SDS011;49449;48.800;9.534;2024-03-06T02:59:45;6.70;;;6.05;;
63320;SDS011;49449;48.800;9.534;2024-03-06T03:02:13;7.60;;;6.90;;
63320;SDS011;49449;48.800;9.534;2024-03-06T03:04:41;6.60;;;5.45;;
63320;SDS011;49449;48.800;9.534;2024-03-06T03:07:10;6.50;;;5.90;;
63320;SDS011;49449;48.800;9.534;2024-03-06T03:09:38;7.22;;;6.00;;
63320;SDS011;49449;48.800;9.534;2024-03-06T03:12:06;7.10;;;6.18;;
63320;SDS011;49449;48.800;9.534;2024-03-06T03:14:35;8.50;;;6.57;;
63320;SDS011;49449;48.800;9.534;2024-03-06T03:17:03;7.13;;;5.95;;
63320;SDS011;49449;48.800;9.534;2024-03-06T03:19:31;6.60;;;6.00;;
63320;SDS011;49449;48.800;9.534;2024-03-06T03:21:59;6.88;;;5.55;;
63320;SDS011;49449;48.800;9.534;2024-03-06T03:24:30;6.72;;;5.50;;
63320;SDS011;49449;48.800;9.534;2024-03-06T03:26:58;8.23;;;5.10;;
63320;SDS011;49449;48.800;9.534;2024-03-06T03:29:26;7.82;;;5.00;;
63320;SDS011;49449;48.800;9.534;2024-03-06T03:31:55;7.90;;;6.75;;
63320;SDS011;49449;48.800;9.534;2024-03-06T03:34:23;7.47;;;6.68;;
63320;SDS011;49449;48.800;9.534;2024-03-06T03:36:50;9.55;;;8.55;;
63320;SDS011;49449;48.800;9.534;2024-03-06T03:39:18;9.25;;;7.35;;
63320;SDS011;49449;48.800;9.534;2024-03-06T03:41:48;9.93;;;8.98;;
63320;SDS011;49449;48.800;9.534;2024-03-06T03:44:17;9.07;;;7.20;;
63320;SDS011;49449;48.800;9.534;2024-03-06T03:46:46;9.57;;;7.20;;
63320;SDS011;49449;48.800;9.534;2024-03-06T03:49:15;8.18;;;5.60;;
63320;SDS011;49449;48.800;9.534;2024-03-06T03:51:43;7.47;;;6.78;;
63320;SDS011;49449;48.800;9.534;2024-03-06T03:54:11;6.53;;;5.90;;
63320;SDS011;49449;48.800;9.534;2024-03-06T03:56:39;6.88;;;6.13;;
63320;SDS011;49449;48.800;9.534;2024-03-06T03:59:07;6.60;;;5.50;;
63320;SDS011;49449;48.800;9.534;2024-03-06T04:01:34;6.57;;;5.97;;
63320;SDS011;49449;48.800;9.534;2024-03-06T04:04:02;8.40;;;6.45;;
63320;SDS011;49449;48.800;9.534;2024-03-06T04:06:32;7.00;;;6.30;;
63320;SDS011;49449;48.800;9.534;2024-03-06T04:08:59;7.47;;;5.90;;
63320;SDS011;49449;48.800;9.534;2024-03-06T04:11:28;7.72;;;6.60;;
63320;SDS011;49449;48.800;9.534;2024-03-06T04:13:56;7.18;;;6.00;;
63320;SDS011;49449;48.800;9.534;2024-03-06T04:16:23;7.43;;;6.20;;
63320;SDS011;49449;48.800;9.534;2024-03-06T04:18:52;8.15;;;6.53;;
63320;SDS011;49449;48.800;9.534;2024-03-06T04:21:20;7.18;;;6.07;;
63320;SDS011;49449;48.800;9.534;2024-03-06T04:23:50;6.75;;;5.90;;
63320;SDS011;49449;48.800;9.534;2024-03-06T04:26:18;8.00;;;6.03;;
63320;SDS011;49449;48.800;9.534;2024-03-06T04:28:46;6.70;;;6.00;;
63320;SDS011;49449;48.800;9.534;2024-03-06T04:31:14;8.32;;;6.30;;
63320;SDS011;49449;48.800;9.534;2024-03-06T04:33:42;6.53;;;4.90;;
63320;SDS011;49449;48.800;9.534;2024-03-06T04:36:10;7.00;;;6.18;;
63320;SDS011;49449;48.800;9.534;2024-03-06T04:38:37;7.30;;;6.03;;
63320;SDS011;49449;48.800;9.534;2024-03-06T04:41:07;7.22;;;6.53;;
63320;SDS011;49449;48.800;9.534;2024-03-06T04:43:35;5.72;;;4.80;;
63320;SDS011;49449;48.800;9.534;2024-03-06T04:46:04;7.85;;;5.47;;
63320;SDS011;49449;48.800;9.534;2024-03-06T04:48:32;7.30;;;6.57;;
63320;SDS011;49449;48.800;9.534;2024-03-06T04:50:59;6.63;;;5.95;;
63320;SDS011;49449;48.800;9.534;2024-03-06T04:53:27;6.80;;;6.05;;
63320;SDS011;49449;48.800;9.534;2024-03-06T04:55:55;7.18;;;6.47;;
63320;SDS011;49449;48.800;9.534;2024-03-06T04:58:24;7.20;;;5.32;;
63320;SDS011;49449;48.800;9.534;2024-03-06T05:00:52;6.10;;;5.50;;
63320;SDS011;49449;48.800;9.534;2024-03-06T05:03:20;6.90;;;5.68;;
63320;SDS011;49449;48.800;9.534;2024-03-06T05:06:06;7.38;;;6.03;;
63320;SDS011;49449;48.800;9.534;2024-03-06T05:08:52;6.85;;;6.15;;
63320;SDS011;49449;48.800;9.534;2024-03-06T05:11:37;10.52;;;8.20;;
63320;SDS011;49449;48.800;9.534;2024-03-06T05:14:24;11.40;;;7.05;;
63320;SDS011;49449;48.800;9.534;2024-03-06T05:17:10;8.68;;;7.28;;
63320;SDS011;49449;48.800;9.534;2024-03-06T05:19:55;8.63;;;6.68;;
63320;SDS011;49449;48.800;9.534;2024-03-06T05:22:40;6.90;;;6.20;;
63320;SDS011;49449;48.800;9.534;2024-03-06T05:25:25;7.15;;;6.43;;
63320;SDS011;49449;48.800;9.534;2024-03-06T05:28:11;7.70;;;6.43;;
63320;SDS011;49449;48.800;9.534;2024-03-06T05:30:57;9.35;;;6.68;;
63320;SDS011;49449;48.800;9.534;2024-03-06T05:33:44;5.80;;;4.95;;
63320;SDS011;49449;48.800;9.534;2024-03-06T05:36:30;7.57;;;6.30;;
63320;SDS011;49449;48.800;9.534;2024-03-06T05:39:15;7.07;;;6.38;;
63320;SDS011;49449;48.800;9.534;2024-03-06T05:42:01;7.18;;;6.47;;
63320;SDS011;49449;48.800;9.534;2024-03-06T05:44:47;6.82;;;6.13;;
63320;SDS011;49449;48.800;9.534;2024-03-06T05:47:36;7.32;;;5.78;;
63320;SDS011;49449;48.800;9.534;2024-03-06T05:50:21;6.97;;;6.28;;
63320;SDS011;49449;48.800;9.534;2024-03-06T05:53:07;7.22;;;5.60;;
63320;SDS011;49449;48.800;9.534;2024-03-06T05:55:52;6.40;;;5.80;;
63320;SDS011;49449;48.800;9.534;2024-03-06T05:58:38;7.70;;;6.57;;
63320;SDS011;49449;48.800;9.534;2024-03-06T06:01:06;7.28;;;5.93;;
63320;SDS011;49449;48.800;9.534;2024-03-06T06:03:36;6.78;;;6.10;;
63320;SDS011;49449;48.800;9.534;2024-03-06T06:06:04;6.78;;;6.07;;
63320;SDS011;49449;48.800;9.534;2024-03-06T06:08:32;6.95;;;6.15;;
63320;SDS011;49449;48.800;9.534;2024-03-06T06:11:01;7.22;;;6.28;;
63320;SDS011;49449;48.800;9.534;2024-03-06T06:13:30;6.32;;;5.32;;
63320;SDS011;49449;48.800;9.534;2024-03-06T06:15:58;6.75;;;5.90;;
63320;SDS011;49449;48.800;9.534;2024-03-06T06:18:26;6.97;;;5.57;;
63320;SDS011;49449;48.800;9.534;2024-03-06T06:20:55;6.22;;;5.60;;
63320;SDS011;49449;48.800;9.534;2024-03-06T06:23:22;6.43;;;5.82;;
63320;SDS011;49449;48.800;9.534;2024-03-06T06:25:50;6.28;;;5.05;;
63320;SDS011;49449;48.800;9.534;2024-03-06T06:28:18;6.25;;;4.97;;
63320;SDS011;49449;48.800;9.534;2024-03-06T06:30:46;6.45;;;5.82;;
63320;SDS011;49449;48.800;9.534;2024-03-06T06:33:14;7.45;;;6.65;;
63320;SDS011;49449;48.800;9.534;2024-03-06T06:35:42;6.95;;;6.25;;
63320;SDS011;49449;48.800;9.534;2024-03-06T06:38:11;6.72;;;6.05;;
63320;SDS011;49449;48.800;9.534;2024-03-06T06:40:39;7.85;;;6.65;;
63320;SDS011;49449;48.800;9.534;2024-03-06T06:43:07;7.88;;;6.35;;
63320;SDS011;49449;48.800;9.534;2024-03-06T06:45:35;7.38;;;6.43;;
63320;SDS011;49449;48.800;9.534;2024-03-06T06:48:04;7.60;;;6.45;;
63320;SDS011;49449;48.800;9.534;2024-03-06T06:50:33;8.07;;;7.35;;
63320;SDS011;49449;48.800;9.534;2024-03-06T06:53:00;9.43;;;8.43;;
63320;SDS011;49449;48.800;9.534;2024-03-06T06:55:30;7.35;;;6.55;;
63320;SDS011;49449;48.800;9.534;2024-03-06T06:57:59;8.75;;;7.93;;
63320;SDS011;49449;48.800;9.534;2024-03-06T07:00:26;8.95;;;8.05;;
63320;SDS011;49449;48.800;9.534;2024-03-06T07:02:56;8.05;;;6.60;;
63320;SDS011;49449;48.800;9.534;2024-03-06T07:05:25;8.30;;;7.50;;
63320;SDS011;49449;48.800;9.534;2024-03-06T07:07:54;8.57;;;7.68;;
63320;SDS011;49449;48.800;9.534;2024-03-06T07:10:22;8.57;;;6.95;;
63320;SDS011;49449;48.800;9.534;2024-03-06T07:12:51;7.95;;;7.15;;
63320;SDS011;49449;48.800;9.534;2024-03-06T07:15:19;9.95;;;7.82;;
63320;SDS011;49449;48.800;9.534;2024-03-06T07:17:47;8.35;;;7.50;;
63320;SDS011;49449;48.800;9.534;2024-03-06T07:20:15;9.32;;;7.80;;
63320;SDS011;49449;48.800;9.534;2024-03-06T07:22:43;10.15;;;7.65;;
63320;SDS011;49449;48.800;9.534;2024-03-06T07:25:10;8.45;;;7.30;;
63320;SDS011;49449;48.800;9.534;2024-03-06T07:27:38;10.18;;;8.27;;
63320;SDS011;49449;48.800;9.534;2024-03-06T07:30:10;8.50;;;7.43;;
63320;SDS011;49449;48.800;9.534;2024-03-06T07:32:39;7.68;;;6.85;;
63320;SDS011;49449;48.800;9.534;2024-03-06T07:35:08;9.25;;;7.88;;
63320;SDS011;49449;48.800;9.534;2024-03-06T07:37:36;7.85;;;7.05;;
63320;SDS011;49449;48.800;9.534;2024-03-06T07:40:04;9.50;;;7.53;;
63320;SDS011;49449;48.800;9.534;2024-03-06T07:42:33;8.15;;;7.32;;
63320;SDS011;49449;48.800;9.534;2024-03-06T07:45:00;10.07;;;7.38;;
63320;SDS011;49449;48.800;9.534;2024-03-06T07:47:30;6.97;;;5.75;;
63320;SDS011;49449;48.800;9.534;2024-03-06T07:49:57;8.70;;;7.35;;
63320;SDS011;49449;48.800;9.534;2024-03-06T07:52:25;8.85;;;7.25;;
63320;SDS011;49449;48.800;9.534;2024-03-06T07:54:54;8.55;;;7.65;;
63320;SDS011;49449;48.800;9.534;2024-03-06T07:57:21;8.65;;;7.72;;
63320;SDS011;49449;48.800;9.534;2024-03-06T07:59:49;9.57;;;6.70;;
63320;SDS011;49449;48.800;9.534;2024-03-06T08:02:20;8.90;;;7.22;;
63320;SDS011;49449;48.800;9.534;2024-03-06T08:04:49;9.50;;;8.55;;
63320;SDS011;49449;48.800;9.534;2024-03-06T08:07:17;8.23;;;7.25;;
63320;SDS011;49449;48.800;9.534;2024-03-06T08:09:45;7.60;;;6.80;;
63320;SDS011;49449;48.800;9.534;2024-03-06T08:12:13;7.63;;;6.55;;
63320;SDS011;49449;48.800;9.534;2024-03-06T08:14:41;9.00;;;7.28;;
63320;SDS011;49449;48.800;9.534;2024-03-06T08:17:08;8.73;;;6.68;;
63320;SDS011;49449;48.800;9.534;2024-03-06T08:19:36;8.35;;;7.38;;
63320;SDS011;49449;48.800;9.534;2024-03-06T08:22:05;8.27;;;6.57;;
63320;SDS011;49449;48.800;9.534;2024-03-06T08:24:34;9.30;;;8.23;;
63320;SDS011;49449;48.800;9.534;2024-03-06T08:27:02;8.43;;;7.63;;
63320;SDS011;49449;48.800;9.534;2024-03-06T08:29:29;8.48;;;7.50;;
63320;SDS011;49449;48.800;9.534;2024-03-06T08:31:57;7.72;;;6.93;;
63320;SDS011;49449;48.800;9.534;2024-03-06T08:34:27;8.35;;;7.20;;
63320;SDS011;49449;48.800;9.534;2024-03-06T08:36:55;7.50;;;6.43;;
63320;SDS011;49449;48.800;9.534;2024-03-06T08:39:24;7.00;;;6.28;;
63320;SDS011;49449;48.800;9.534;2024-03-06T08:41:52;8.95;;;7.97;;
63320;SDS011;49449;48.800;9.534;2024-03-06T08:44:20;8.63;;;7.57;;
63320;SDS011;49449;48.800;9.534;2024-03-06T08:46:47;9.02;;;8.07;;
63320;SDS011;49449;48.800;9.534;2024-03-06T08:49:15;11.35;;;8.80;;
63320;SDS011;49449;48.800;9.534;2024-03-06T08:51:44;8.70;;;6.93;;
63320;SDS011;49449;48.800;9.534;2024-03-06T08:54:12;10.13;;;8.90;;
63320;SDS011;49449;48.800;9.534;2024-03-06T08:56:41;8.40;;;6.35;;
63320;SDS011;49449;48.800;9.534;2024-03-06T08:59:10;9.48;;;8.52;;
63320;SDS011;49449;48.800;9.534;2024-03-06T09:01:38;9.55;;;8.30;;
63320;SDS011;49449;48.800;9.534;2024-03-06T09:04:05;10.02;;;8.68;;
63320;SDS011;49449;48.800;9.534;2024-03-06T09:06:33;9.48;;;8.48;;
63320;SDS011;49449;48.800;9.534;2024-03-06T09:09:01;8.50;;;7.60;;
63320;SDS011;49449;48.800;9.534;2024-03-06T09:11:31;10.38;;;8.88;;
63320;SDS011;49449;48.800;9.534;2024-03-06T09:14:01;8.88;;;8.00;;
63320;SDS011;49449;48.800;9.534;2024-03-06T09:16:30;9.35;;;8.35;;
63320;SDS011;49449;48.800;9.534;2024-03-06T09:18:58;8.40;;;7.38;;
63320;SDS011;49449;48.800;9.534;2024-03-06T09:21:27;10.10;;;8.50;;
63320;SDS011;49449;48.800;9.534;2024-03-06T09:23:54;9.75;;;7.18;;
63320;SDS011;49449;48.800;9.534;2024-03-06T09:26:22;10.15;;;8.40;;
63320;SDS011;49449;48.800;9.534;2024-03-06T09:28:50;10.23;;;8.77;;
63320;SDS011;49449;48.800;9.534;2024-03-06T09:31:19;10.43;;;9.32;;
63320;SDS011;49449;48.800;9.534;2024-03-06T09:33:47;10.25;;;8.75;;
63320;SDS011;49449;48.800;9.534;2024-03-06T09:36:15;9.23;;;8.27;;
63320;SDS011;49449;48.800;9.534;2024-03-06T09:38:43;8.32;;;7.40;;
63320;SDS011;49449;48.800;9.534;2024-03-06T09:41:10;10.52;;;8.40;;
63320;SDS011;49449;48.800;9.534;2024-03-06T09:43:38;10.55;;;8.45;;
63320;SDS011;49449;48.800;9.534;2024-03-06T09:46:07;10.07;;;9.07;;
63320;SDS011;49449;48.800;9.534;2024-03-06T09:48:36;9.13;;;7.50;;
63320;SDS011;49449;48.800;9.534;2024-03-06T09:51:12;9.77;;;8.75;;
63320;SDS011;49449;48.800;9.534;2024-03-06T09:53:41;9.73;;;7.90;;
63320;SDS011;49449;48.800;9.534;2024-03-06T09:56:09;9.88;;;8.43;;
63320;SDS011;49449;48.800;9.534;2024-03-06T09:58:37;8.32;;;7.43;;
63320;SDS011;49449;48.800;9.534;2024-03-06T10:01:05;9.43;;;8.13;;
63320;SDS011;49449;48.800;9.534;2024-03-06T10:03:33;9.68;;;8.02;;
63320;SDS011;49449;48.800;9.534;2024-03-06T10:06:02;9.18;;;7.68;;
63320;SDS011;49449;48.800;9.534;2024-03-06T10:08:31;8.15;;;7.35;;
63320;SDS011;49449;48.800;9.534;2024-03-06T10:10:59;9.18;;;8.27;;
63320;SDS011;49449;48.800;9.534;2024-03-06T10:13:27;10.23;;;8.20;;
63320;SDS011;49449;48.800;9.534;2024-03-06T10:15:56;8.75;;;7.85;;
63320;SDS011;49449;48.800;9.534;2024-03-06T10:18:26;9.88;;;8.82;;
63320;SDS011;49449;48.800;9.534;2024-03-06T10:20:54;9.77;;;8.13;;
63320;SDS011;49449;48.800;9.534;2024-03-06T10:23:24;9.90;;;7.85;;
63320;SDS011;49449;48.800;9.534;2024-03-06T10:25:54;9.98;;;7.10;;
63320;SDS011;49449;48.800;9.534;2024-03-06T10:28:23;8.95;;;7.85;;
63320;SDS011;49449;48.800;9.534;2024-03-06T10:30:51;9.00;;;7.05;;
63320;SDS011;49449;48.800;9.534;2024-03-06T10:33:19;9.43;;;7.63;;
63320;SDS011;49449;48.800;9.534;2024-03-06T10:35:47;9.02;;;7.88;;
63320;SDS011;49449;48.800;9.534;2024-03-06T10:38:16;9.02;;;8.13;;
63320;SDS011;49449;48.800;9.534;2024-03-06T10:40:48;9.27;;;7.63;;
63320;SDS011;49449;48.800;9.534;2024-03-06T10:43:18;9.18;;;7.72;;
63320;SDS011;49449;48.800;9.534;2024-03-06T10:45:48;9.30;;;8.30;;
63320;SDS011;49449;48.800;9.534;2024-03-06T10:48:18;10.13;;;8.57;;
63320;SDS011;49449;48.800;9.534;2024-03-06T10:50:46;10.02;;;8.25;;
63320;SDS011;49449;48.800;9.534;2024-03-06T10:53:16;8.73;;;7.68;;
63320;SDS011;49449;48.800;9.534;2024-03-06T10:55:45;8.80;;;7.28;;
63320;SDS011;49449;48.800;9.534;2024-03-06T10:58:14;10.45;;;8.02;;
63320;SDS011;49449;48.800;9.534;2024-03-06T11:00:45;9.82;;;8.73;;
63320;SDS011;49449;48.800;9.534;2024-03-06T11:03:15;11.38;;;8.85;;
63320;SDS011;49449;48.800;9.534;2024-03-06T11:05:44;11.40;;;10.00;;
63320;SDS011;49449;48.800;9.534;2024-03-06T11:08:13;10.30;;;9.30;;
63320;SDS011;49449;48.800;9.534;2024-03-06T11:10:43;11.35;;;8.95;;
63320;SDS011;49449;48.800;9.534;2024-03-06T11:13:22;11.80;;;9.30;;
63320;SDS011;49449;48.800;9.534;2024-03-06T11:15:51;9.85;;;8.73;;
63320;SDS011;49449;48.800;9.534;2024-03-06T11:18:43;11.02;;;9.18;;
63320;SDS011;49449;48.800;9.534;2024-03-06T11:24:12;13.13;;;10.93;;
63320;SDS011;49449;48.800;9.534;2024-03-06T11:26:41;10.82;;;8.63;;
63320;SDS011;49449;48.800;9.534;2024-03-06T11:29:13;11.27;;;9.75;;
63320;SDS011;49449;48.800;9.534;2024-03-06T11:31:56;12.65;;;11.32;;
63320;SDS011;49449;48.800;9.534;2024-03-06T11:34:27;10.82;;;9.50;;
63320;SDS011;49449;48.800;9.534;2024-03-06T11:36:56;11.52;;;9.48;;
63320;SDS011;49449;48.800;9.534;2024-03-06T11:39:28;9.70;;;8.40;;
63320;SDS011;49449;48.800;9.534;2024-03-06T11:41:56;9.82;;;8.30;;
63320;SDS011;49449;48.800;9.534;2024-03-06T11:44:26;11.70;;;9.93;;
63320;SDS011;49449;48.800;9.534;2024-03-06T11:46:59;10.48;;;8.40;;
63320;SDS011;49449;48.800;9.534;2024-03-06T11:49:28;12.13;;;10.32;;
63320;SDS011;49449;48.800;9.534;2024-03-06T11:51:59;10.35;;;9.25;;
63320;SDS011;49449;48.800;9.534;2024-03-06T11:54:29;10.98;;;9.88;;
63320;SDS011;49449;48.800;9.534;2024-03-06T11:56:57;11.52;;;10.32;;
63320;SDS011;49449;48.800;9.534;2024-03-06T11:59:27;11.38;;;10.18;;
63320;SDS011;49449;48.800;9.534;2024-03-06T12:01:56;10.70;;;9.60;;
63320;SDS011;49449;48.800;9.534;2024-03-06T12:04:27;9.13;;;8.18;;
63320;SDS011;49449;48.800;9.534;2024-03-06T12:06:57;11.05;;;9.75;;
63320;SDS011;49449;48.800;9.534;2024-03-06T12:09:26;11.65;;;10.40;;
63320;SDS011;49449;48.800;9.534;2024-03-06T12:11:55;11.32;;;9.55;;
63320;SDS011;49449;48.800;9.534;2024-03-06T12:14:23;11.95;;;9.68;;
63320;SDS011;49449;48.800;9.534;2024-03-06T12:16:55;13.10;;;10.10;;
63320;SDS011;49449;48.800;9.534;2024-03-06T12:19:25;11.43;;;9.25;;
63320;SDS011;49449;48.800;9.534;2024-03-06T12:21:53;9.98;;;7.65;;
63320;SDS011;49449;48.800;9.534;2024-03-06T12:24:21;10.35;;;9.20;;
63320;SDS011;49449;48.800;9.534;2024-03-06T12:26:57;12.07;;;10.45;;
63320;SDS011;49449;48.800;9.534;2024-03-06T12:29:27;12.63;;;9.23;;
63320;SDS011;49449;48.800;9.534;2024-03-06T12:31:57;10.07;;;8.48;;
63320;SDS011;49449;48.800;9.534;2024-03-06T12:34:26;10.93;;;9.70;;
63320;SDS011;49449;48.800;9.534;2024-03-06T12:36:54;12.35;;;9.07;;
63320;SDS011;49449;48.800;9.534;2024-03-06T12:39:23;12.52;;;10.20;;
63320;SDS011;49449;48.800;9.534;2024-03-06T12:41:51;9.50;;;7.45;;
63320;SDS011;49449;48.800;9.534;2024-03-06T12:44:19;9.73;;;7.80;;
63320;SDS011;49449;48.800;9.534;2024-03-06T12:46:47;11.95;;;10.20;;
63320;SDS011;49449;48.800;9.534;2024-03-06T12:49:17;11.80;;;8.57;;
63320;SDS011;49449;48.800;9.534;2024-03-06T12:51:46;12.98;;;10.48;;
63320;SDS011;49449;48.800;9.534;2024-03-06T12:54:13;12.73;;;10.45;;
63320;SDS011;49449;48.800;9.534;2024-03-06T12:56:41;15.32;;;11.13;;
63320;SDS011;49449;48.800;9.534;2024-03-06T12:59:09;12.40;;;8.55;;
63320;SDS011;49449;48.800;9.534;2024-03-06T13:01:37;12.40;;;10.25;;
63320;SDS011;49449;48.800;9.534;2024-03-06T13:04:04;11.70;;;9.52;;
63320;SDS011;49449;48.800;9.534;2024-03-06T13:06:36;11.60;;;8.98;;
63320;SDS011;49449;48.800;9.534;2024-03-06T13:09:03;11.82;;;9.15;;
63320;SDS011;49449;48.800;9.534;2024-03-06T13:11:31;11.77;;;8.82;;
63320;SDS011;49449;48.800;9.534;2024-03-06T13:13:59;11.27;;;9.50;;
63320;SDS011;49449;48.800;9.534;2024-03-06T13:16:27;13.10;;;10.88;;
63320;SDS011;49449;48.800;9.534;2024-03-06T13:18:55;14.02;;;11.40;;
63320;SDS011;49449;48.800;9.534;2024-03-06T13:21:23;13.82;;;10.80;;
63320;SDS011;49449;48.800;9.534;2024-03-06T13:23:53;13.13;;;11.48;;
63320;SDS011;49449;48.800;9.534;2024-03-06T13:26:21;13.48;;;9.20;;
63320;SDS011;49449;48.800;9.534;2024-03-06T13:28:49;13.15;;;11.43;;
63320;SDS011;49449;48.800;9.534;2024-03-06T13:31:17;13.93;;;11.38;;
63320;SDS011;49449;48.800;9.534;2024-03-06T13:33:45;13.45;;;11.32;;
63320;SDS011;49449;48.800;9.534;2024-03-06T13:36:12;13.60;;;11.65;;
63320;SDS011;49449;48.800;9.534;2024-03-06T13:38:41;12.02;;;10.48;;
63320;SDS011;49449;48.800;9.534;2024-03-06T13:41:10;12.07;;;9.70;;
63320;SDS011;49449;48.800;9.534;2024-03-06T13:43:38;13.70;;;10.55;;
63320;SDS011;49449;48.800;9.534;2024-03-06T13:46:06;16.45;;;11.32;;
63320;SDS011;49449;48.800;9.534;2024-03-06T13:48:34;14.63;;;10.60;;
63320;SDS011;49449;48.800;9.534;2024-03-06T13:51:03;13.43;;;10.00;;
63320;SDS011;49449;48.800;9.534;2024-03-06T13:53:31;11.38;;;9.20;;
63320;SDS011;49449;48.800;9.534;2024-03-06T13:55:59;14.70;;;10.57;;
63320;SDS011;49449;48.800;9.534;2024-03-06T13:58:28;13.90;;;9.18;;
63320;SDS011;49449;48.800;9.534;2024-03-06T14:00:56;13.60;;;10.32;;
63320;SDS011;49449;48.800;9.534;2024-03-06T14:03:24;13.85;;;9.88;;
63320;SDS011;49449;48.800;9.534;2024-03-06T14:05:52;12.23;;;9.30;;
63320;SDS011;49449;48.800;9.534;2024-03-06T14:08:19;15.13;;;11.50;;
63320;SDS011;49449;48.800;9.534;2024-03-06T14:10:48;13.00;;;10.35;;
63320;SDS011;49449;48.800;9.534;2024-03-06T14:13:16;11.73;;;8.75;;
63320;SDS011;49449;48.800;9.534;2024-03-06T14:15:45;12.27;;;9.45;;
63320;SDS011;49449;48.800;9.534;2024-03-06T14:18:14;12.73;;;9.32;;
63320;SDS011;49449;48.800;9.534;2024-03-06T14:20:42;11.45;;;8.43;;
63320;SDS011;49449;48.800;9.534;2024-03-06T14:23:10;11.05;;;8.32;;
63320;SDS011;49449;48.800;9.534;2024-03-06T14:25:38;13.40;;;9.60;;
63320;SDS011;49449;48.800;9.534;2024-03-06T14:28:06;14.45;;;10.10;;
63320;SDS011;49449;48.800;9.534;2024-03-06T14:30:34;14.57;;;10.43;;
63320;SDS011;49449;48.800;9.534;2024-03-06T14:33:05;13.57;;;10.60;;
63320;SDS011;49449;48.800;9.534;2024-03-06T14:35:33;13.32;;;10.00;;
63320;SDS011;49449;48.800;9.534;2024-03-06T14:38:00;12.55;;;9.93;;
63320;SDS011;49449;48.800;9.534;2024-03-06T14:40:28;13.15;;;10.07;;
63320;SDS011;49449;48.800;9.534;2024-03-06T14:42:57;13.80;;;10.57;;
63320;SDS011;49449;48.800;9.534;2024-03-06T14:45:24;12.77;;;9.70;;
63320;SDS011;49449;48.800;9.534;2024-03-06T14:47:52;12.38;;;8.88;;
63320;SDS011;49449;48.800;9.534;2024-03-06T14:50:22;10.60;;;8.90;;
63320;SDS011;49449;48.800;9.534;2024-03-06T14:52:51;11.45;;;8.45;;
63320;SDS011;49449;48.800;9.534;2024-03-06T14:55:19;11.23;;;7.43;;
63320;SDS011;49449;48.800;9.534;2024-03-06T14:57:47;11.13;;;8.73;;
63320;SDS011;49449;48.800;9.534;2024-03-06T15:00:15;12.60;;;10.15;;